sensor_id;sensor_type;location;lat;lon;timestamp;P1;durP1;ratioP1;P2;durP2;ratioP2
313;SDS011;143;51.634;7.112;2023-06-10T00:00:39;10.77;;;6.30;;
313;SDS011;143;51.634;7.112;2023-06-10T00:03:09;9.90;;;7.70;;
313;SDS011;143;51.634;7.112;2023-06-10T00:05:34;9.83;;;7.10;;
313;SDS011;143;51.634;7.112;2023-06-10T00:08:01;12.63;;;6.63;;
313;SDS011;143;51.634;7.112;2023-06-10T00:10:32;10.00;;;7.00;;
313;SDS011;143;51.634;7.112;2023-06-10T00:13:05;13.37;;;7.93;;
313;SDS011;143;51.634;7.112;2023-06-10T00:15:33;8.10;;;6.40;;
313;SDS011;143;51.634;7.112;2023-06-10T00:18:00;11.40;;;7.50;;
313;SDS011;143;51.634;7.112;2023-06-10T00:20:27;10.90;;;7.60;;
313;SDS011;143;51.634;7.112;2023-06-10T00:22:53;12.00;;;7.90;;
313;SDS011;143;51.634;7.112;2023-06-10T00:25:19;12.90;;;7.90;;
313;SDS011;143;51.634;7.112;2023-06-10T00:27:44;8.40;;;6.23;;
313;SDS011;143;51.634;7.112;2023-06-10T00:30:10;10.30;;;6.97;;
313;SDS011;143;51.634;7.112;2023-06-10T00:32:37;10.80;;;8.00;;
313;SDS011;143;51.634;7.112;2023-06-10T00:35:03;10.20;;;7.37;;
313;SDS011;143;51.634;7.112;2023-06-10T00:37:29;12.63;;;8.43;;
313;SDS011;143;51.634;7.112;2023-06-10T00:39:55;17.23;;;7.60;;
313;SDS011;143;51.634;7.112;2023-06-10T00:42:21;9.10;;;6.90;;
313;SDS011;143;51.634;7.112;2023-06-10T00:44:49;12.57;;;8.00;;
313;SDS011;143;51.634;7.112;2023-06-10T00:47:19;16.70;;;7.27;;
313;SDS011;143;51.634;7.112;2023-06-10T00:49:45;9.60;;;7.43;;
313;SDS011;143;51.634;7.112;2023-06-10T00:52:11;14.20;;;8.37;;
313;SDS011;143;51.634;7.112;2023-06-10T00:54:38;14.60;;;8.60;;
313;SDS011;143;51.634;7.112;2023-06-10T00:57:04;10.97;;;7.90;;
313;SDS011;143;51.634;7.112;2023-06-10T00:59:31;14.23;;;8.53;;
313;SDS011;143;51.634;7.112;2023-06-10T01:01:57;12.57;;;7.57;;
313;SDS011;143;51.634;7.112;2023-06-10T01:04:23;17.10;;;8.30;;
313;SDS011;143;51.634;7.112;2023-06-10T01:12:05;10.63;;;8.27;;
313;SDS011;143;51.634;7.112;2023-06-10T01:14:36;12.90;;;8.40;;
313;SDS011;143;51.634;7.112;2023-06-10T01:17:03;17.10;;;9.00;;
313;SDS011;143;51.634;7.112;2023-06-10T01:19:30;11.00;;;7.60;;
313;SDS011;143;51.634;7.112;2023-06-10T01:21:57;12.10;;;8.13;;
313;SDS011;143;51.634;7.112;2023-06-10T01:24:25;10.17;;;7.77;;
313;SDS011;143;51.634;7.112;2023-06-10T01:26:51;13.83;;;8.20;;
313;SDS011;143;51.634;7.112;2023-06-10T01:29:35;13.40;;;8.30;;
313;SDS011;143;51.634;7.112;2023-06-10T01:32:26;11.70;;;8.23;;
313;SDS011;143;51.634;7.112;2023-06-10T01:34:57;14.27;;;9.57;;
313;SDS011;143;51.634;7.112;2023-06-10T01:37:25;12.83;;;8.40;;
313;SDS011;143;51.634;7.112;2023-06-10T01:39:51;12.90;;;9.10;;
313;SDS011;143;51.634;7.112;2023-06-10T01:42:19;11.77;;;8.70;;
313;SDS011;143;51.634;7.112;2023-06-10T01:44:46;11.87;;;8.70;;
313;SDS011;143;51.634;7.112;2023-06-10T01:47:12;11.03;;;8.07;;
313;SDS011;143;51.634;7.112;2023-06-10T01:49:37;11.53;;;8.67;;
313;SDS011;143;51.634;7.112;2023-06-10T01:52:03;12.10;;;8.20;;
313;SDS011;143;51.634;7.112;2023-06-10T01:54:29;12.70;;;9.10;;
313;SDS011;143;51.634;7.112;2023-06-10T01:56:55;12.63;;;7.50;;
313;SDS011;143;51.634;7.112;2023-06-10T01:59:20;12.00;;;8.67;;
313;SDS011;143;51.634;7.112;2023-06-10T02:01:46;12.93;;;7.60;;
313;SDS011;143;51.634;7.112;2023-06-10T02:04:12;19.63;;;9.47;;
313;SDS011;143;51.634;7.112;2023-06-10T02:06:37;11.07;;;8.30;;
313;SDS011;143;51.634;7.112;2023-06-10T02:09:03;16.40;;;8.80;;
313;SDS011;143;51.634;7.112;2023-06-10T02:11:29;11.10;;;8.23;;
313;SDS011;143;51.634;7.112;2023-06-10T02:13:54;9.70;;;8.73;;
313;SDS011;143;51.634;7.112;2023-06-10T02:16:20;9.30;;;7.00;;
313;SDS011;143;51.634;7.112;2023-06-10T02:18:46;13.07;;;8.13;;
313;SDS011;143;51.634;7.112;2023-06-10T02:21:13;15.70;;;9.43;;
313;SDS011;143;51.634;7.112;2023-06-10T02:23:39;12.63;;;8.00;;
313;SDS011;143;51.634;7.112;2023-06-10T02:26:05;14.50;;;8.73;;
313;SDS011;143;51.634;7.112;2023-06-10T02:28:31;14.17;;;9.00;;
313;SDS011;143;51.634;7.112;2023-06-10T02:30:57;9.33;;;7.33;;
313;SDS011;143;51.634;7.112;2023-06-10T02:33:23;14.40;;;7.43;;
313;SDS011;143;51.634;7.112;2023-06-10T02:35:49;12.93;;;8.07;;
313;SDS011;143;51.634;7.112;2023-06-10T02:38:16;12.10;;;8.13;;
313;SDS011;143;51.634;7.112;2023-06-10T02:40:42;15.57;;;7.90;;
313;SDS011;143;51.634;7.112;2023-06-10T02:43:08;11.87;;;8.10;;
313;SDS011;143;51.634;7.112;2023-06-10T02:45:34;14.43;;;7.93;;
313;SDS011;143;51.634;7.112;2023-06-10T02:48:00;15.27;;;8.10;;
313;SDS011;143;51.634;7.112;2023-06-10T02:50:25;9.70;;;7.40;;
313;SDS011;143;51.634;7.112;2023-06-10T02:52:51;12.77;;;8.33;;
313;SDS011;143;51.634;7.112;2023-06-10T02:55:17;16.80;;;8.60;;
313;SDS011;143;51.634;7.112;2023-06-10T02:57:42;9.87;;;7.43;;
313;SDS011;143;51.634;7.112;2023-06-10T03:00:08;12.43;;;7.80;;
313;SDS011;143;51.634;7.112;2023-06-10T03:02:35;13.03;;;9.10;;
313;SDS011;143;51.634;7.112;2023-06-10T03:05:04;16.23;;;8.50;;
313;SDS011;143;51.634;7.112;2023-06-10T03:07:30;13.83;;;9.40;;
313;SDS011;143;51.634;7.112;2023-06-10T03:09:57;14.30;;;7.83;;
313;SDS011;143;51.634;7.112;2023-06-10T03:12:22;13.57;;;8.77;;
313;SDS011;143;51.634;7.112;2023-06-10T03:14:48;13.53;;;8.17;;
313;SDS011;143;51.634;7.112;2023-06-10T03:17:14;18.03;;;8.17;;
313;SDS011;143;51.634;7.112;2023-06-10T03:19:39;13.03;;;7.13;;
313;SDS011;143;51.634;7.112;2023-06-10T03:22:09;12.30;;;7.80;;
313;SDS011;143;51.634;7.112;2023-06-10T03:24:36;19.03;;;7.60;;
313;SDS011;143;51.634;7.112;2023-06-10T03:27:06;11.60;;;7.57;;
313;SDS011;143;51.634;7.112;2023-06-10T03:29:32;9.37;;;7.13;;
313;SDS011;143;51.634;7.112;2023-06-10T03:31:58;11.27;;;7.40;;
313;SDS011;143;51.634;7.112;2023-06-10T03:34:24;13.97;;;8.70;;
313;SDS011;143;51.634;7.112;2023-06-10T03:36:49;13.37;;;7.97;;
313;SDS011;143;51.634;7.112;2023-06-10T03:39:15;13.47;;;7.80;;
313;SDS011;143;51.634;7.112;2023-06-10T03:41:41;11.33;;;7.87;;
313;SDS011;143;51.634;7.112;2023-06-10T03:44:07;11.90;;;8.50;;
313;SDS011;143;51.634;7.112;2023-06-10T03:46:32;10.63;;;7.60;;
313;SDS011;143;51.634;7.112;2023-06-10T03:48:58;11.53;;;7.50;;
313;SDS011;143;51.634;7.112;2023-06-10T03:51:26;13.40;;;7.93;;
313;SDS011;143;51.634;7.112;2023-06-10T03:53:52;11.60;;;7.30;;
313;SDS011;143;51.634;7.112;2023-06-10T03:56:17;20.17;;;8.90;;
313;SDS011;143;51.634;7.112;2023-06-10T03:58:43;10.30;;;7.10;;
313;SDS011;143;51.634;7.112;2023-06-10T04:01:09;12.90;;;7.03;;
313;SDS011;143;51.634;7.112;2023-06-10T04:03:35;10.03;;;6.70;;
313;SDS011;143;51.634;7.112;2023-06-10T04:06:01;9.67;;;6.50;;
313;SDS011;143;51.634;7.112;2023-06-10T04:08:27;14.80;;;8.20;;
313;SDS011;143;51.634;7.112;2023-06-10T04:10:54;11.10;;;7.43;;
313;SDS011;143;51.634;7.112;2023-06-10T04:13:19;14.77;;;6.77;;
313;SDS011;143;51.634;7.112;2023-06-10T04:15:45;11.10;;;6.63;;
313;SDS011;143;51.634;7.112;2023-06-10T04:18:11;11.60;;;6.80;;
313;SDS011;143;51.634;7.112;2023-06-10T04:20:36;15.87;;;7.53;;
313;SDS011;143;51.634;7.112;2023-06-10T04:23:02;12.30;;;6.83;;
313;SDS011;143;51.634;7.112;2023-06-10T04:25:28;11.60;;;6.20;;
313;SDS011;143;51.634;7.112;2023-06-10T04:27:54;12.83;;;7.00;;
313;SDS011;143;51.634;7.112;2023-06-10T04:30:20;10.03;;;6.50;;
313;SDS011;143;51.634;7.112;2023-06-10T04:32:46;14.00;;;7.00;;
313;SDS011;143;51.634;7.112;2023-06-10T04:35:12;9.60;;;6.77;;
313;SDS011;143;51.634;7.112;2023-06-10T04:37:39;11.77;;;6.53;;
313;SDS011;143;51.634;7.112;2023-06-10T04:40:06;11.07;;;6.60;;
313;SDS011;143;51.634;7.112;2023-06-10T04:42:32;9.60;;;5.53;;
313;SDS011;143;51.634;7.112;2023-06-10T04:44:58;8.27;;;5.83;;
313;SDS011;143;51.634;7.112;2023-06-10T04:47:23;7.90;;;5.97;;
313;SDS011;143;51.634;7.112;2023-06-10T04:49:50;10.50;;;5.80;;
313;SDS011;143;51.634;7.112;2023-06-10T04:52:16;11.80;;;6.53;;
313;SDS011;143;51.634;7.112;2023-06-10T04:54:42;8.53;;;5.23;;
313;SDS011;143;51.634;7.112;2023-06-10T04:57:08;12.60;;;5.77;;
313;SDS011;143;51.634;7.112;2023-06-10T04:59:34;12.30;;;5.70;;
313;SDS011;143;51.634;7.112;2023-06-10T05:02:06;11.73;;;5.57;;
313;SDS011;143;51.634;7.112;2023-06-10T05:04:32;11.27;;;5.70;;
313;SDS011;143;51.634;7.112;2023-06-10T05:06:57;15.60;;;5.80;;
313;SDS011;143;51.634;7.112;2023-06-10T05:09:23;13.03;;;6.30;;
313;SDS011;143;51.634;7.112;2023-06-10T05:11:49;10.20;;;5.93;;
313;SDS011;143;51.634;7.112;2023-06-10T05:14:15;10.53;;;5.60;;
313;SDS011;143;51.634;7.112;2023-06-10T05:16:44;10.90;;;5.90;;
313;SDS011;143;51.634;7.112;2023-06-10T05:19:09;11.23;;;6.33;;
313;SDS011;143;51.634;7.112;2023-06-10T05:21:36;11.90;;;6.03;;
313;SDS011;143;51.634;7.112;2023-06-10T05:24:02;11.70;;;5.87;;
313;SDS011;143;51.634;7.112;2023-06-10T05:26:27;8.97;;;5.60;;
313;SDS011;143;51.634;7.112;2023-06-10T05:28:54;16.43;;;5.60;;
313;SDS011;143;51.634;7.112;2023-06-10T05:31:19;11.30;;;6.57;;
313;SDS011;143;51.634;7.112;2023-06-10T05:33:45;8.07;;;5.60;;
313;SDS011;143;51.634;7.112;2023-06-10T05:36:11;13.00;;;5.97;;
313;SDS011;143;51.634;7.112;2023-06-10T05:38:36;9.97;;;5.73;;
313;SDS011;143;51.634;7.112;2023-06-10T05:41:02;17.80;;;6.30;;
313;SDS011;143;51.634;7.112;2023-06-10T05:43:28;9.43;;;5.80;;
313;SDS011;143;51.634;7.112;2023-06-10T05:45:54;8.00;;;5.47;;
313;SDS011;143;51.634;7.112;2023-06-10T05:48:20;13.10;;;5.70;;
313;SDS011;143;51.634;7.112;2023-06-10T05:50:46;8.97;;;5.57;;
313;SDS011;143;51.634;7.112;2023-06-10T05:53:14;12.17;;;5.80;;
313;SDS011;143;51.634;7.112;2023-06-10T05:55:41;14.77;;;4.93;;
313;SDS011;143;51.634;7.112;2023-06-10T05:58:08;11.00;;;4.60;;
313;SDS011;143;51.634;7.112;2023-06-10T06:00:34;8.17;;;5.90;;
313;SDS011;143;51.634;7.112;2023-06-10T06:03:00;11.30;;;5.40;;
313;SDS011;143;51.634;7.112;2023-06-10T06:05:26;8.53;;;4.97;;
313;SDS011;143;51.634;7.112;2023-06-10T06:07:51;14.07;;;6.23;;
313;SDS011;143;51.634;7.112;2023-06-10T06:10:18;8.57;;;5.57;;
313;SDS011;143;51.634;7.112;2023-06-10T06:12:44;9.47;;;5.17;;
313;SDS011;143;51.634;7.112;2023-06-10T06:15:10;10.17;;;4.90;;
313;SDS011;143;51.634;7.112;2023-06-10T06:17:36;8.77;;;5.13;;
313;SDS011;143;51.634;7.112;2023-06-10T06:20:02;8.87;;;5.37;;
313;SDS011;143;51.634;7.112;2023-06-10T06:22:28;10.33;;;5.40;;
313;SDS011;143;51.634;7.112;2023-06-10T06:24:54;10.70;;;5.60;;
313;SDS011;143;51.634;7.112;2023-06-10T06:27:20;7.10;;;5.00;;
313;SDS011;143;51.634;7.112;2023-06-10T06:29:46;9.97;;;5.17;;
313;SDS011;143;51.634;7.112;2023-06-10T06:32:12;10.27;;;5.30;;
313;SDS011;143;51.634;7.112;2023-06-10T06:34:37;9.50;;;4.70;;
313;SDS011;143;51.634;7.112;2023-06-10T06:37:03;8.53;;;4.50;;
313;SDS011;143;51.634;7.112;2023-06-10T06:39:29;8.70;;;4.70;;
313;SDS011;143;51.634;7.112;2023-06-10T06:41:55;11.50;;;5.10;;
313;SDS011;143;51.634;7.112;2023-06-10T06:44:20;11.73;;;5.30;;
313;SDS011;143;51.634;7.112;2023-06-10T06:46:46;14.10;;;5.67;;
313;SDS011;143;51.634;7.112;2023-06-10T06:49:12;9.90;;;5.30;;
313;SDS011;143;51.634;7.112;2023-06-10T06:51:37;10.90;;;5.00;;
313;SDS011;143;51.634;7.112;2023-06-10T06:54:03;8.57;;;4.97;;
313;SDS011;143;51.634;7.112;2023-06-10T06:56:30;11.60;;;6.50;;
313;SDS011;143;51.634;7.112;2023-06-10T06:58:56;12.20;;;5.50;;
313;SDS011;143;51.634;7.112;2023-06-10T07:01:22;6.40;;;4.30;;
313;SDS011;143;51.634;7.112;2023-06-10T07:03:48;8.97;;;5.03;;
313;SDS011;143;51.634;7.112;2023-06-10T07:06:13;11.53;;;5.27;;
313;SDS011;143;51.634;7.112;2023-06-10T07:08:39;13.10;;;5.80;;
313;SDS011;143;51.634;7.112;2023-06-10T07:11:05;14.50;;;6.07;;
313;SDS011;143;51.634;7.112;2023-06-10T07:13:30;10.33;;;5.20;;
313;SDS011;143;51.634;7.112;2023-06-10T07:15:56;9.53;;;5.20;;
313;SDS011;143;51.634;7.112;2023-06-10T07:18:22;7.03;;;4.60;;
313;SDS011;143;51.634;7.112;2023-06-10T07:20:47;8.80;;;5.43;;
313;SDS011;143;51.634;7.112;2023-06-10T07:23:13;11.10;;;5.87;;
313;SDS011;143;51.634;7.112;2023-06-10T07:25:40;6.27;;;4.20;;
313;SDS011;143;51.634;7.112;2023-06-10T07:28:06;11.50;;;5.10;;
313;SDS011;143;51.634;7.112;2023-06-10T07:30:32;7.00;;;4.63;;
313;SDS011;143;51.634;7.112;2023-06-10T07:32:58;8.00;;;5.13;;
313;SDS011;143;51.634;7.112;2023-06-10T07:35:23;7.97;;;4.70;;
313;SDS011;143;51.634;7.112;2023-06-10T07:37:49;13.87;;;4.57;;
313;SDS011;143;51.634;7.112;2023-06-10T07:40:15;7.13;;;4.93;;
313;SDS011;143;51.634;7.112;2023-06-10T07:42:41;8.13;;;4.40;;
313;SDS011;143;51.634;7.112;2023-06-10T07:45:08;12.93;;;4.73;;
313;SDS011;143;51.634;7.112;2023-06-10T07:47:34;8.50;;;5.80;;
313;SDS011;143;51.634;7.112;2023-06-10T07:50:00;12.47;;;5.37;;
313;SDS011;143;51.634;7.112;2023-06-10T07:52:25;15.47;;;4.60;;
313;SDS011;143;51.634;7.112;2023-06-10T07:54:51;7.70;;;4.50;;
313;SDS011;143;51.634;7.112;2023-06-10T07:57:17;8.67;;;4.80;;
313;SDS011;143;51.634;7.112;2023-06-10T07:59:44;6.03;;;4.10;;
313;SDS011;143;51.634;7.112;2023-06-10T08:02:10;8.37;;;4.70;;
313;SDS011;143;51.634;7.112;2023-06-10T08:04:35;9.37;;;4.30;;
313;SDS011;143;51.634;7.112;2023-06-10T08:07:01;7.13;;;4.30;;
313;SDS011;143;51.634;7.112;2023-06-10T08:09:27;10.90;;;4.67;;
313;SDS011;143;51.634;7.112;2023-06-10T08:11:53;14.10;;;5.50;;
313;SDS011;143;51.634;7.112;2023-06-10T08:14:20;6.47;;;4.60;;
313;SDS011;143;51.634;7.112;2023-06-10T08:16:46;8.77;;;4.37;;
313;SDS011;143;51.634;7.112;2023-06-10T08:19:12;10.80;;;4.67;;
313;SDS011;143;51.634;7.112;2023-06-10T08:21:37;12.27;;;4.57;;
313;SDS011;143;51.634;7.112;2023-06-10T08:24:04;7.27;;;4.70;;
313;SDS011;143;51.634;7.112;2023-06-10T08:26:31;11.27;;;4.60;;
313;SDS011;143;51.634;7.112;2023-06-10T08:28:56;16.57;;;4.33;;
313;SDS011;143;51.634;7.112;2023-06-10T08:31:22;10.90;;;4.10;;
313;SDS011;143;51.634;7.112;2023-06-10T08:33:48;7.53;;;4.13;;
313;SDS011;143;51.634;7.112;2023-06-10T08:36:14;11.63;;;5.20;;
313;SDS011;143;51.634;7.112;2023-06-10T08:38:39;12.23;;;5.10;;
313;SDS011;143;51.634;7.112;2023-06-10T08:41:05;10.07;;;4.73;;
313;SDS011;143;51.634;7.112;2023-06-10T08:43:32;8.23;;;4.60;;
313;SDS011;143;51.634;7.112;2023-06-10T08:46:03;7.90;;;4.90;;
313;SDS011;143;51.634;7.112;2023-06-10T08:48:29;7.87;;;4.63;;
313;SDS011;143;51.634;7.112;2023-06-10T08:50:56;9.40;;;4.80;;
313;SDS011;143;51.634;7.112;2023-06-10T08:53:23;6.53;;;4.30;;
313;SDS011;143;51.634;7.112;2023-06-10T08:55:50;18.27;;;4.93;;
313;SDS011;143;51.634;7.112;2023-06-10T08:58:17;11.47;;;5.70;;
313;SDS011;143;51.634;7.112;2023-06-10T09:00:43;10.03;;;5.90;;
313;SDS011;143;51.634;7.112;2023-06-10T09:03:10;14.17;;;5.03;;
313;SDS011;143;51.634;7.112;2023-06-10T09:05:36;10.70;;;4.37;;
313;SDS011;143;51.634;7.112;2023-06-10T09:08:03;9.10;;;4.97;;
313;SDS011;143;51.634;7.112;2023-06-10T09:10:30;10.53;;;5.10;;
313;SDS011;143;51.634;7.112;2023-06-10T09:12:57;6.87;;;4.73;;
313;SDS011;143;51.634;7.112;2023-06-10T09:15:23;9.73;;;4.77;;
313;SDS011;143;51.634;7.112;2023-06-10T09:17:49;9.77;;;4.77;;
313;SDS011;143;51.634;7.112;2023-06-10T09:20:16;10.50;;;5.90;;
313;SDS011;143;51.634;7.112;2023-06-10T09:22:41;11.30;;;4.67;;
313;SDS011;143;51.634;7.112;2023-06-10T09:25:09;10.07;;;5.10;;
313;SDS011;143;51.634;7.112;2023-06-10T09:27:46;7.20;;;5.10;;
313;SDS011;143;51.634;7.112;2023-06-10T09:30:30;9.37;;;5.23;;
313;SDS011;143;51.634;7.112;2023-06-10T09:33:00;8.97;;;5.10;;
313;SDS011;143;51.634;7.112;2023-06-10T09:35:28;10.03;;;5.30;;
313;SDS011;143;51.634;7.112;2023-06-10T09:37:58;10.97;;;5.00;;
313;SDS011;143;51.634;7.112;2023-06-10T09:40:25;6.83;;;4.60;;
313;SDS011;143;51.634;7.112;2023-06-10T09:42:55;13.87;;;5.37;;
313;SDS011;143;51.634;7.112;2023-06-10T09:45:22;12.37;;;5.03;;
313;SDS011;143;51.634;7.112;2023-06-10T09:47:55;15.93;;;6.10;;
313;SDS011;143;51.634;7.112;2023-06-10T09:50:21;8.37;;;5.47;;
313;SDS011;143;51.634;7.112;2023-06-10T09:52:46;12.53;;;5.20;;
313;SDS011;143;51.634;7.112;2023-06-10T09:55:16;7.23;;;4.90;;
313;SDS011;143;51.634;7.112;2023-06-10T09:57:42;11.53;;;4.93;;
313;SDS011;143;51.634;7.112;2023-06-10T10:00:12;9.37;;;4.87;;
313;SDS011;143;51.634;7.112;2023-06-10T10:05:19;19.80;;;5.40;;
313;SDS011;143;51.634;7.112;2023-06-10T10:07:46;7.50;;;4.83;;
313;SDS011;143;51.634;7.112;2023-06-10T10:10:13;13.70;;;5.60;;
313;SDS011;143;51.634;7.112;2023-06-10T10:12:40;10.10;;;5.47;;
313;SDS011;143;51.634;7.112;2023-06-10T10:15:10;13.53;;;5.70;;
313;SDS011;143;51.634;7.112;2023-06-10T10:17:37;13.40;;;4.83;;
313;SDS011;143;51.634;7.112;2023-06-10T10:20:06;13.00;;;5.53;;
313;SDS011;143;51.634;7.112;2023-06-10T10:22:40;9.67;;;5.20;;
313;SDS011;143;51.634;7.112;2023-06-10T10:25:10;10.30;;;5.30;;
313;SDS011;143;51.634;7.112;2023-06-10T10:27:51;11.83;;;5.07;;
313;SDS011;143;51.634;7.112;2023-06-10T10:30:21;9.90;;;5.17;;
313;SDS011;143;51.634;7.112;2023-06-10T10:35:19;14.57;;;5.67;;
313;SDS011;143;51.634;7.112;2023-06-10T10:37:48;7.93;;;4.53;;
313;SDS011;143;51.634;7.112;2023-06-10T10:40:16;7.23;;;5.30;;
313;SDS011;143;51.634;7.112;2023-06-10T10:42:42;7.03;;;4.70;;
313;SDS011;143;51.634;7.112;2023-06-10T10:45:08;8.70;;;5.10;;
313;SDS011;143;51.634;7.112;2023-06-10T10:47:35;9.47;;;4.77;;
313;SDS011;143;51.634;7.112;2023-06-10T10:50:03;13.60;;;5.17;;
313;SDS011;143;51.634;7.112;2023-06-10T10:52:53;10.30;;;5.30;;
313;SDS011;143;51.634;7.112;2023-06-10T10:55:21;8.30;;;5.20;;
313;SDS011;143;51.634;7.112;2023-06-10T10:57:58;10.87;;;5.43;;
313;SDS011;143;51.634;7.112;2023-06-10T11:00:31;7.57;;;4.23;;
313;SDS011;143;51.634;7.112;2023-06-10T11:05:36;7.93;;;4.77;;
313;SDS011;143;51.634;7.112;2023-06-10T11:08:09;7.17;;;4.87;;
313;SDS011;143;51.634;7.112;2023-06-10T11:10:41;12.03;;;4.30;;
313;SDS011;143;51.634;7.112;2023-06-10T11:13:20;6.00;;;4.63;;
313;SDS011;143;51.634;7.112;2023-06-10T11:15:47;8.60;;;5.03;;
313;SDS011;143;51.634;7.112;2023-06-10T11:18:22;8.40;;;4.93;;
313;SDS011;143;51.634;7.112;2023-06-10T11:21:02;12.47;;;4.93;;
313;SDS011;143;51.634;7.112;2023-06-10T11:34:05;10.03;;;5.40;;
313;SDS011;143;51.634;7.112;2023-06-10T11:36:32;7.63;;;5.50;;
313;SDS011;143;51.634;7.112;2023-06-10T11:39:00;7.10;;;4.63;;
313;SDS011;143;51.634;7.112;2023-06-10T11:41:30;11.27;;;5.20;;
313;SDS011;143;51.634;7.112;2023-06-10T11:44:01;6.60;;;4.73;;
313;SDS011;143;51.634;7.112;2023-06-10T11:46:33;7.90;;;5.00;;
313;SDS011;143;51.634;7.112;2023-06-10T11:48:59;11.77;;;4.93;;
313;SDS011;143;51.634;7.112;2023-06-10T11:51:45;10.40;;;5.10;;
313;SDS011;143;51.634;7.112;2023-06-10T11:54:14;9.20;;;4.90;;
313;SDS011;143;51.634;7.112;2023-06-10T11:56:41;11.10;;;5.67;;
313;SDS011;143;51.634;7.112;2023-06-10T11:59:06;10.57;;;5.30;;
313;SDS011;143;51.634;7.112;2023-06-10T12:01:33;9.87;;;5.03;;
313;SDS011;143;51.634;7.112;2023-06-10T12:04:03;6.00;;;4.47;;
313;SDS011;143;51.634;7.112;2023-06-10T12:06:37;7.00;;;4.93;;
313;SDS011;143;51.634;7.112;2023-06-10T12:09:13;7.47;;;4.93;;
313;SDS011;143;51.634;7.112;2023-06-10T12:11:59;6.90;;;4.90;;
313;SDS011;143;51.634;7.112;2023-06-10T12:17:18;25.37;;;7.27;;
313;SDS011;143;51.634;7.112;2023-06-10T12:19:46;10.03;;;5.40;;
313;SDS011;143;51.634;7.112;2023-06-10T12:22:13;11.20;;;5.53;;
313;SDS011;143;51.634;7.112;2023-06-10T12:24:46;10.53;;;5.13;;
313;SDS011;143;51.634;7.112;2023-06-10T12:27:29;6.97;;;5.00;;
313;SDS011;143;51.634;7.112;2023-06-10T12:29:56;12.53;;;5.93;;
313;SDS011;143;51.634;7.112;2023-06-10T12:35:03;13.30;;;4.27;;
313;SDS011;143;51.634;7.112;2023-06-10T12:37:29;8.33;;;5.23;;
313;SDS011;143;51.634;7.112;2023-06-10T12:39:58;7.23;;;4.93;;
313;SDS011;143;51.634;7.112;2023-06-10T12:42:26;8.60;;;4.90;;
313;SDS011;143;51.634;7.112;2023-06-10T12:44:54;9.03;;;5.30;;
313;SDS011;143;51.634;7.112;2023-06-10T12:47:28;8.30;;;5.30;;
313;SDS011;143;51.634;7.112;2023-06-10T12:50:00;7.90;;;5.13;;
313;SDS011;143;51.634;7.112;2023-06-10T12:52:28;6.30;;;4.73;;
313;SDS011;143;51.634;7.112;2023-06-10T12:54:54;7.20;;;5.20;;
313;SDS011;143;51.634;7.112;2023-06-10T12:57:22;7.60;;;4.90;;
313;SDS011;143;51.634;7.112;2023-06-10T12:59:48;5.83;;;4.40;;
313;SDS011;143;51.634;7.112;2023-06-10T13:02:17;8.03;;;4.77;;
313;SDS011;143;51.634;7.112;2023-06-10T13:04:48;13.03;;;5.23;;
313;SDS011;143;51.634;7.112;2023-06-10T13:07:17;19.83;;;6.50;;
313;SDS011;143;51.634;7.112;2023-06-10T13:09:43;7.27;;;5.30;;
313;SDS011;143;51.634;7.112;2023-06-10T13:12:09;8.90;;;5.97;;
313;SDS011;143;51.634;7.112;2023-06-10T13:14:35;11.53;;;5.03;;
313;SDS011;143;51.634;7.112;2023-06-10T13:17:02;10.67;;;4.77;;
313;SDS011;143;51.634;7.112;2023-06-10T13:19:30;10.80;;;5.20;;
313;SDS011;143;51.634;7.112;2023-06-10T13:21:57;6.80;;;5.23;;
313;SDS011;143;51.634;7.112;2023-06-10T13:24:23;7.10;;;5.43;;
313;SDS011;143;51.634;7.112;2023-06-10T13:26:48;7.00;;;5.03;;
313;SDS011;143;51.634;7.112;2023-06-10T13:29:14;8.73;;;5.60;;
313;SDS011;143;51.634;7.112;2023-06-10T13:31:40;8.40;;;5.40;;
313;SDS011;143;51.634;7.112;2023-06-10T13:34:06;5.90;;;4.83;;
313;SDS011;143;51.634;7.112;2023-06-10T13:36:32;7.70;;;5.30;;
313;SDS011;143;51.634;7.112;2023-06-10T13:38:58;8.10;;;5.40;;
313;SDS011;143;51.634;7.112;2023-06-10T13:41:23;8.87;;;5.37;;
313;SDS011;143;51.634;7.112;2023-06-10T13:43:50;9.43;;;5.13;;
313;SDS011;143;51.634;7.112;2023-06-10T13:46:15;12.53;;;5.00;;
313;SDS011;143;51.634;7.112;2023-06-10T13:48:42;10.57;;;5.60;;
313;SDS011;143;51.634;7.112;2023-06-10T13:51:07;7.53;;;4.90;;
313;SDS011;143;51.634;7.112;2023-06-10T13:53:34;6.40;;;5.00;;
313;SDS011;143;51.634;7.112;2023-06-10T13:56:01;10.40;;;5.50;;
313;SDS011;143;51.634;7.112;2023-06-10T13:58:26;10.93;;;5.43;;
313;SDS011;143;51.634;7.112;2023-06-10T14:00:52;12.30;;;5.47;;
313;SDS011;143;51.634;7.112;2023-06-10T14:03:18;11.90;;;5.30;;
313;SDS011;143;51.634;7.112;2023-06-10T14:05:43;8.57;;;5.30;;
313;SDS011;143;51.634;7.112;2023-06-10T14:08:09;7.90;;;5.13;;
313;SDS011;143;51.634;7.112;2023-06-10T14:10:35;7.10;;;5.60;;
313;SDS011;143;51.634;7.112;2023-06-10T14:13:00;7.30;;;4.90;;
313;SDS011;143;51.634;7.112;2023-06-10T14:15:26;7.00;;;5.07;;
313;SDS011;143;51.634;7.112;2023-06-10T14:17:52;6.00;;;5.03;;
313;SDS011;143;51.634;7.112;2023-06-10T14:20:17;10.00;;;5.17;;
313;SDS011;143;51.634;7.112;2023-06-10T14:22:43;11.20;;;5.30;;
313;SDS011;143;51.634;7.112;2023-06-10T14:25:09;6.23;;;4.97;;
313;SDS011;143;51.634;7.112;2023-06-10T14:27:36;10.87;;;5.50;;
313;SDS011;143;51.634;7.112;2023-06-10T14:30:02;8.87;;;4.53;;
313;SDS011;143;51.634;7.112;2023-06-10T14:32:28;8.53;;;5.17;;
313;SDS011;143;51.634;7.112;2023-06-10T14:34:54;9.60;;;5.47;;
313;SDS011;143;51.634;7.112;2023-06-10T14:37:20;7.90;;;5.43;;
313;SDS011;143;51.634;7.112;2023-06-10T14:39:46;5.53;;;4.40;;
313;SDS011;143;51.634;7.112;2023-06-10T14:42:11;11.27;;;5.63;;
313;SDS011;143;51.634;7.112;2023-06-10T14:44:37;7.60;;;4.73;;
313;SDS011;143;51.634;7.112;2023-06-10T14:47:03;10.80;;;5.47;;
313;SDS011;143;51.634;7.112;2023-06-10T14:49:28;8.13;;;4.93;;
313;SDS011;143;51.634;7.112;2023-06-10T14:51:54;9.20;;;5.10;;
313;SDS011;143;51.634;7.112;2023-06-10T14:54:20;9.17;;;5.20;;
313;SDS011;143;51.634;7.112;2023-06-10T14:56:46;7.23;;;4.90;;
313;SDS011;143;51.634;7.112;2023-06-10T14:59:12;10.90;;;5.20;;
313;SDS011;143;51.634;7.112;2023-06-10T15:01:38;6.47;;;4.70;;
313;SDS011;143;51.634;7.112;2023-06-10T15:04:04;12.50;;;5.30;;
313;SDS011;143;51.634;7.112;2023-06-10T15:06:29;7.83;;;5.70;;
313;SDS011;143;51.634;7.112;2023-06-10T15:08:55;10.03;;;5.07;;
313;SDS011;143;51.634;7.112;2023-06-10T15:11:21;7.70;;;4.53;;
313;SDS011;143;51.634;7.112;2023-06-10T15:13:47;6.60;;;4.53;;
313;SDS011;143;51.634;7.112;2023-06-10T15:16:12;10.97;;;5.40;;
313;SDS011;143;51.634;7.112;2023-06-10T15:18:40;6.13;;;4.47;;
313;SDS011;143;51.634;7.112;2023-06-10T15:21:05;9.23;;;5.10;;
313;SDS011;143;51.634;7.112;2023-06-10T15:23:31;8.47;;;4.70;;
313;SDS011;143;51.634;7.112;2023-06-10T15:25:56;7.60;;;4.23;;
313;SDS011;143;51.634;7.112;2023-06-10T15:28:23;9.60;;;5.10;;
313;SDS011;143;51.634;7.112;2023-06-10T15:30:48;7.90;;;5.00;;
313;SDS011;143;51.634;7.112;2023-06-10T15:33:14;6.87;;;4.90;;
313;SDS011;143;51.634;7.112;2023-06-10T15:35:40;9.40;;;5.03;;
313;SDS011;143;51.634;7.112;2023-06-10T15:38:05;8.90;;;6.37;;
313;SDS011;143;51.634;7.112;2023-06-10T15:40:31;6.73;;;5.27;;
313;SDS011;143;51.634;7.112;2023-06-10T15:42:57;7.17;;;5.50;;
313;SDS011;143;51.634;7.112;2023-06-10T15:45:22;8.03;;;5.30;;
313;SDS011;143;51.634;7.112;2023-06-10T15:47:48;6.97;;;5.43;;
313;SDS011;143;51.634;7.112;2023-06-10T15:50:14;7.50;;;5.70;;
313;SDS011;143;51.634;7.112;2023-06-10T15:52:39;7.13;;;5.07;;
313;SDS011;143;51.634;7.112;2023-06-10T15:55:05;7.57;;;4.50;;
313;SDS011;143;51.634;7.112;2023-06-10T15:57:31;5.97;;;5.07;;
313;SDS011;143;51.634;7.112;2023-06-10T15:59:56;9.00;;;5.20;;
313;SDS011;143;51.634;7.112;2023-06-10T16:02:22;9.30;;;5.10;;
313;SDS011;143;51.634;7.112;2023-06-10T16:04:48;6.00;;;4.90;;